Portada
METAR-TAF:

METAR-TAF

Aeroports :

Kagoshima, Japó

latitud: 31-48N, longitud: 130-43E, altitud: 272 m

Observació

L'informe es va fer fa 23 minuts, a les 06:00 UTC
Vent 4 kt amb direcció variable
Temperatura 22°C
Humitat 50%
Pressió 1018 hPa
Visibilitat 10 km o més
Escasses núvols a una alçada de 4000 ft
Cel ennuvolat

METAR: RJFK 270600Z VRB04KT 9999 FEW040 BKN/// 22/11 Q1018 RMK 2CU040 A3007

Hora: 15:23 (06:23 UTC)

Pronòstic

L'informe es va fer fa 1 hora i 9 minuts, a les 05:14 UTC
Pronòstic vàlid del 27 a les 06 UTC al 28 a les 12 UTC
Vent 4 kt del Nord/Nord-Est
Visibilitat 10 km o més
Escasses núvols a una alçada de 1500 ft
Núvols disperses a una alçada de 2500 ft
Evolucionant progressivament
l' 28 a les 00 UTC al 28 a les 03 UTC
Vent 5 kt del Sud
Evolucionant progressivament
l' 28 a les 06 UTC al 28 a les 09 UTC
Vent 5 kt del Oest/Nord-Oest

TAF: RJFK 270514Z 2706/2812 03004KT 9999 FEW015 SCT025 BECMG 2800/2803 19005KT BECMG 2806/2809 29005KT

Observacions i pronòstics meteorològics de més de 4000 aeroports (METAR i TAF).

Les estacions disponibles són els punts grocs i vermells al mapa.

Posi el ratolí al punt desitjat per veure el nom de l'estació.

Feu clic per veure les observacions i els pronòstics meteorològics.

Per canviar el mapa: feu clic els botons verds amb una creu de color negre per apropar; al botó verd amb un guió per allunyar la imatge; o en les fletxes verdes per a mapes adjacents.


METAR-TAF: